Time;durP1;ratioP1;P1;durP2;ratioP2;P2;SDS_P1;SDS_P2;PMS_P1;PMS_P2;Temp;Humidity;BMP_temperature;BMP_pressure;BME280_temperature;BME280_humidity;BME280_pressure;Samples;Min_cycle;Max_cycle;Signal;HPM_P1;HPM_P2
2024/02/17 00:02:20;;;;;;;18.27;11.00;;;11.20;99.90;;;;;;5059995;28;20032;-84
2024/02/17 00:04:46;;;;;;;14.90;10.73;;;11.10;99.90;;;;;;5059554;28;20379;-84
2024/02/17 00:07:12;;;;;;;15.43;11.35;;;11.10;99.90;;;;;;5094311;28;20077;-85
2024/02/17 00:09:37;;;;;;;14.43;11.30;;;11.10;99.90;;;;;;5075637;28;20409;-84
2024/02/17 00:12:03;;;;;;;14.15;10.45;;;11.00;99.90;;;;;;5059194;28;20524;-84
2024/02/17 00:14:29;;;;;;;14.77;11.25;;;11.00;99.90;;;;;;5075279;28;20024;-85
2024/02/17 00:16:55;;;;;;;18.77;11.00;;;11.00;99.90;;;;;;5075440;28;20128;-86
2024/02/17 00:19:20;;;;;;;13.57;10.80;;;11.00;99.90;;;;;;5076192;28;20036;-84
2024/02/17 00:21:46;;;;;;;17.50;10.82;;;11.00;99.90;;;;;;5059859;28;20039;-85
2024/02/17 00:24:12;;;;;;;14.02;11.45;;;11.00;99.90;;;;;;5059727;28;20020;-85
2024/02/17 00:26:38;;;;;;;16.33;10.52;;;11.00;99.90;;;;;;5076577;28;20111;-85
2024/02/17 00:29:04;;;;;;;13.68;10.55;;;11.00;99.90;;;;;;5060094;28;20024;-84
2024/02/17 00:31:30;;;;;;;14.82;11.57;;;11.10;99.90;;;;;;5065768;28;20059;-86
2024/02/17 00:33:55;;;;;;;15.85;11.25;;;11.00;99.90;;;;;;5100675;28;20031;-86
2024/02/17 00:36:21;;;;;;;14.20;10.30;;;11.00;99.90;;;;;;5084179;28;20015;-85
2024/02/17 00:38:47;;;;;;;16.20;11.82;;;11.10;99.90;;;;;;5083993;28;20096;-84
2024/02/17 00:41:13;;;;;;;15.60;11.85;;;11.00;99.90;;;;;;5096836;28;20044;-83
2024/02/17 00:43:39;;;;;;;17.73;12.27;;;11.00;99.90;;;;;;5059969;28;20031;-84
2024/02/17 00:46:05;;;;;;;20.00;11.55;;;11.00;99.90;;;;;;5059383;28;20364;-84
2024/02/17 00:48:32;;;;;;;18.85;12.55;;;11.10;99.90;;;;;;5059265;28;20028;-84
2024/02/17 00:51:00;;;;;;;18.98;12.45;;;11.10;99.90;;;;;;5076414;28;20036;-84
2024/02/17 00:53:26;;;;;;;17.20;12.70;;;11.10;99.90;;;;;;5075856;28;20028;-85
2024/02/17 00:55:55;;;;;;;17.75;12.75;;;11.10;99.90;;;;;;5059037;28;20062;-84
2024/02/17 00:58:20;;;;;;;18.55;13.07;;;11.10;99.90;;;;;;5059513;28;20036;-83
2024/02/17 01:00:46;;;;;;;17.88;12.90;;;11.10;99.90;;;;;;5075873;28;20028;-84
2024/02/17 01:03:12;;;;;;;15.85;12.52;;;11.10;99.90;;;;;;5075808;28;20051;-84
2024/02/17 01:05:39;;;;;;;18.60;12.80;;;11.10;99.90;;;;;;5075528;28;20035;-85
2024/02/17 01:08:09;;;;;;;16.85;13.15;;;11.20;99.90;;;;;;5075528;28;20021;-83
2024/02/17 01:10:35;;;;;;;16.95;12.52;;;11.20;99.90;;;;;;5076382;28;20032;-84
2024/02/17 01:13:03;;;;;;;19.65;13.05;;;11.10;99.90;;;;;;5075760;28;20379;-84
2024/02/17 01:15:29;;;;;;;18.13;12.50;;;11.20;99.90;;;;;;5075794;28;20077;-84
2024/02/17 01:17:57;;;;;;;18.33;12.30;;;11.20;99.90;;;;;;5093350;28;20044;-84
2024/02/17 01:20:23;;;;;;;17.88;13.05;;;11.20;99.90;;;;;;5059020;28;20036;-83
2024/02/17 01:22:49;;;;;;;21.30;13.35;;;11.20;99.90;;;;;;5059156;28;20066;-85
2024/02/17 01:25:14;;;;;;;20.63;13.45;;;11.20;99.90;;;;;;5059954;28;20062;-84
2024/02/17 01:27:40;;;;;;;19.42;12.88;;;11.20;99.90;;;;;;5079316;28;20028;-84
2024/02/17 01:30:06;;;;;;;20.50;12.52;;;11.20;99.90;;;;;;5062079;28;20032;-85
2024/02/17 01:32:32;;;;;;;16.85;12.05;;;11.20;99.90;;;;;;5079260;28;20032;-84
2024/02/17 01:35:01;;;;;;;19.27;13.23;;;11.20;99.90;;;;;;5079509;28;20028;-85
2024/02/17 01:37:26;;;;;;;16.35;12.48;;;11.30;99.90;;;;;;5062134;28;20024;-84
2024/02/17 01:39:54;;;;;;;19.30;12.82;;;11.20;99.90;;;;;;5079250;28;20047;-85
2024/02/17 01:42:21;;;;;;;17.85;12.32;;;11.20;99.90;;;;;;5062619;28;20120;-85
2024/02/17 01:44:47;;;;;;;19.25;12.68;;;11.20;99.90;;;;;;5062198;28;20054;-84
2024/02/17 01:47:13;;;;;;;16.08;12.60;;;11.20;99.90;;;;;;5062142;28;20032;-85
2024/02/17 01:49:39;;;;;;;21.55;13.23;;;11.30;99.90;;;;;;5061971;28;20024;-85
2024/02/17 01:52:05;;;;;;;18.95;13.50;;;11.30;99.90;;;;;;5079220;28;20371;-85
2024/02/17 01:54:32;;;;;;;19.75;13.65;;;11.30;99.90;;;;;;5078430;28;20024;-84
2024/02/17 01:57:00;;;;;;;21.73;14.40;;;11.30;99.90;;;;;;5078356;28;20032;-85
2024/02/17 01:59:27;;;;;;;22.60;13.73;;;11.20;99.90;;;;;;5078866;28;20038;-84
2024/02/17 02:01:54;;;;;;;20.15;14.00;;;11.30;99.90;;;;;;5078844;28;20023;-84
2024/02/17 02:04:20;;;;;;;20.20;14.30;;;11.20;99.90;;;;;;5098481;28;20031;-84
2024/02/17 02:06:46;;;;;;;22.70;14.02;;;11.20;99.90;;;;;;5102365;28;20016;-86
2024/02/17 02:09:14;;;;;;;20.52;14.40;;;11.20;99.90;;;;;;5102246;28;20017;-88
2024/02/17 02:11:40;;;;;;;24.38;15.57;;;11.20;99.90;;;;;;5085956;28;20035;-86
2024/02/17 02:14:16;;;;;;;20.23;14.60;;;11.20;99.90;;;;;;5099073;28;20028;-85
2024/02/17 02:16:42;;;;;;;17.98;13.80;;;11.20;99.90;;;;;;5078569;28;20028;-85
2024/02/17 02:19:09;;;;;;;21.73;15.70;;;11.20;99.90;;;;;;5061990;28;20379;-85
2024/02/17 02:21:38;;;;;;;21.35;14.50;;;11.20;99.90;;;;;;5078220;28;20031;-84
2024/02/17 02:24:04;;;;;;;24.13;14.25;;;11.20;99.90;;;;;;5077997;28;20031;-85
2024/02/17 02:26:33;;;;;;;21.20;14.23;;;11.20;99.90;;;;;;5096268;28;20070;-84
2024/02/17 02:28:59;;;;;;;21.25;14.18;;;11.20;99.90;;;;;;5078052;28;20261;-85
2024/02/17 02:31:25;;;;;;;19.92;15.10;;;11.20;99.90;;;;;;5077868;28;20047;-85
2024/02/17 02:33:51;;;;;;;23.20;15.35;;;11.20;99.90;;;;;;5078302;28;20028;-84
2024/02/17 02:36:18;;;;;;;21.48;14.70;;;11.20;99.90;;;;;;5077039;28;20578;-84
2024/02/17 02:38:45;;;;;;;23.27;14.73;;;11.30;99.90;;;;;;5061261;28;20425;-85
2024/02/17 02:41:11;;;;;;;19.92;15.02;;;11.30;99.90;;;;;;5078158;28;20087;-88
2024/02/17 02:43:40;;;;;;;23.98;15.63;;;11.30;99.90;;;;;;5062203;28;20495;-88
2024/02/17 02:46:06;;;;;;;23.05;15.35;;;11.30;99.90;;;;;;5079019;28;20028;-87
2024/02/17 02:48:32;;;;;;;19.92;14.65;;;11.30;99.90;;;;;;5080831;28;20028;-87
2024/02/17 02:51:01;;;;;;;25.40;14.93;;;11.30;99.90;;;;;;5079255;28;20089;-87
2024/02/17 02:53:26;;;;;;;19.67;14.32;;;11.30;99.90;;;;;;5096751;28;20028;-88
2024/02/17 02:55:53;;;;;;;25.65;15.32;;;11.20;99.90;;;;;;5080265;28;20055;-88
2024/02/17 02:58:19;;;;;;;21.23;15.32;;;11.20;99.90;;;;;;5080414;28;20049;-89
2024/02/17 03:00:46;;;;;;;20.45;14.55;;;11.20;99.90;;;;;;5064117;28;20035;-88
2024/02/17 03:03:12;;;;;;;27.15;16.50;;;11.20;99.90;;;;;;5081738;28;20020;-88
2024/02/17 03:05:38;;;;;;;21.60;15.00;;;11.30;99.90;;;;;;5082787;28;20031;-88
2024/02/17 03:08:04;;;;;;;19.35;14.73;;;11.20;99.90;;;;;;5064790;28;20028;-88
2024/02/17 03:10:30;;;;;;;21.27;14.32;;;11.20;99.90;;;;;;5064956;28;20043;-90
2024/02/17 03:12:56;;;;;;;20.63;15.32;;;11.20;99.90;;;;;;5079727;28;20028;-86
2024/02/17 03:15:22;;;;;;;18.42;14.02;;;11.20;99.90;;;;;;5078918;28;20028;-88
2024/02/17 03:17:50;;;;;;;21.17;14.68;;;11.30;99.90;;;;;;5075260;28;20048;-87
2024/02/17 03:20:16;;;;;;;21.42;14.02;;;11.20;99.90;;;;;;5058805;28;20086;-88
2024/02/17 03:22:43;;;;;;;22.77;14.68;;;11.20;99.90;;;;;;5075394;28;20029;-88
2024/02/17 03:25:11;;;;;;;20.60;15.07;;;11.20;99.90;;;;;;5076060;28;20025;-90
2024/02/17 03:27:39;;;;;;;19.15;13.82;;;11.20;99.90;;;;;;5058331;28;20064;-89
2024/02/17 03:30:08;;;;;;;21.75;14.82;;;11.20;99.90;;;;;;5058330;28;20032;-89
2024/02/17 03:32:34;;;;;;;23.00;15.10;;;11.20;99.90;;;;;;5075179;28;20478;-88
2024/02/17 03:35:06;;;;;;;19.30;14.40;;;11.20;99.90;;;;;;5075652;28;20060;-88
2024/02/17 03:37:32;;;;;;;23.65;14.32;;;11.30;99.90;;;;;;5078737;28;20096;-90
2024/02/17 03:40:01;;;;;;;21.77;14.68;;;11.30;99.90;;;;;;5098697;28;20032;-88
2024/02/17 03:42:26;;;;;;;18.77;13.63;;;11.30;99.90;;;;;;5098525;28;20008;-86
2024/02/17 03:44:52;;;;;;;19.70;14.55;;;11.20;99.90;;;;;;5097886;28;20035;-88
2024/02/17 03:47:18;;;;;;;19.20;14.30;;;11.20;99.90;;;;;;5089072;28;20021;-88
2024/02/17 03:49:44;;;;;;;22.85;14.32;;;11.20;99.90;;;;;;5075004;28;20357;-88
2024/02/17 03:52:09;;;;;;;20.25;14.45;;;11.20;99.90;;;;;;5074647;28;20445;-88
2024/02/17 03:54:35;;;;;;;22.17;13.95;;;11.20;99.90;;;;;;5074659;28;20111;-89
2024/02/17 03:57:01;;;;;;;17.90;13.57;;;11.20;99.90;;;;;;5076192;28;20365;-89
2024/02/17 03:59:30;;;;;;;19.38;14.05;;;11.20;99.90;;;;;;5057514;28;20063;-87
2024/02/17 04:01:56;;;;;;;19.90;14.23;;;11.30;99.90;;;;;;5074334;28;20029;-88
2024/02/17 04:04:22;;;;;;;18.35;13.55;;;11.30;99.90;;;;;;5074570;28;20028;-89
2024/02/17 04:06:48;;;;;;;20.25;14.30;;;11.20;99.90;;;;;;5057923;28;20384;-89
2024/02/17 04:09:13;;;;;;;20.65;14.55;;;11.20;99.90;;;;;;5062198;28;20123;-88
2024/02/17 04:11:40;;;;;;;19.90;14.38;;;11.20;99.90;;;;;;5059013;28;20062;-89
2024/02/17 04:14:05;;;;;;;21.58;14.65;;;11.20;99.90;;;;;;5058355;28;20017;-88
2024/02/17 04:16:31;;;;;;;21.95;14.20;;;11.20;99.90;;;;;;5059026;28;20032;-89
2024/02/17 04:18:57;;;;;;;17.00;12.93;;;11.20;99.90;;;;;;5078237;28;20032;-87
2024/02/17 04:21:22;;;;;;;21.42;14.43;;;11.30;99.90;;;;;;5095800;28;20031;-87
2024/02/17 04:23:48;;;;;;;18.73;12.85;;;11.20;99.90;;;;;;5078015;28;20043;-88
2024/02/17 04:26:14;;;;;;;20.95;14.43;;;11.20;99.90;;;;;;5077686;28;20035;-89
2024/02/17 04:28:40;;;;;;;20.88;13.48;;;11.20;99.90;;;;;;5076809;28;20492;-88
2024/02/17 04:31:07;;;;;;;21.25;14.13;;;11.30;99.90;;;;;;5077748;28;20039;-88
2024/02/17 04:33:37;;;;;;;19.90;14.63;;;11.20;99.90;;;;;;5077371;28;20027;-87
2024/02/17 04:36:04;;;;;;;20.27;14.07;;;11.20;99.90;;;;;;5076424;28;20020;-88
2024/02/17 04:38:30;;;;;;;17.23;13.98;;;11.20;99.90;;;;;;5059684;28;20032;-90
2024/02/17 04:40:55;;;;;;;18.20;13.43;;;11.20;99.90;;;;;;5060396;28;20074;-89
2024/02/17 04:43:21;;;;;;;19.85;13.88;;;11.20;99.90;;;;;;5095878;28;20031;-89
2024/02/17 04:45:47;;;;;;;19.08;13.50;;;11.20;99.90;;;;;;5077349;28;20090;-88
2024/02/17 04:48:12;;;;;;;18.10;12.50;;;11.20;99.90;;;;;;5095560;28;20025;-88
2024/02/17 04:50:38;;;;;;;19.08;13.63;;;11.20;99.90;;;;;;5060556;28;20039;-88
2024/02/17 04:53:04;;;;;;;19.90;13.80;;;11.20;99.90;;;;;;5060496;28;20032;-88
2024/02/17 04:55:33;;;;;;;19.92;13.85;;;11.20;99.90;;;;;;5060992;28;20122;-89
2024/02/17 04:57:58;;;;;;;20.10;13.57;;;11.20;99.90;;;;;;5060614;28;20032;-88
2024/02/17 05:00:24;;;;;;;19.90;12.85;;;11.20;99.90;;;;;;5079382;28;20170;-87
2024/02/17 05:02:50;;;;;;;19.98;12.75;;;11.20;99.90;;;;;;5085856;28;20032;-86
2024/02/17 05:05:16;;;;;;;19.42;13.32;;;11.20;99.90;;;;;;5064694;28;20039;-88
2024/02/17 05:07:48;;;;;;;19.00;13.20;;;11.30;99.90;;;;;;5081611;28;20028;-88
2024/02/17 05:10:14;;;;;;;17.83;12.82;;;11.20;99.90;;;;;;5100191;28;20032;-88
2024/02/17 05:12:40;;;;;;;18.42;12.63;;;11.30;99.90;;;;;;5099847;28;20093;-88
2024/02/17 05:15:07;;;;;;;19.02;13.27;;;11.20;99.90;;;;;;5087754;28;20020;-89
2024/02/17 05:17:33;;;;;;;20.25;12.77;;;11.20;99.90;;;;;;5121996;28;20043;-86
2024/02/17 05:19:59;;;;;;;18.48;13.15;;;11.20;99.90;;;;;;5074055;28;20040;-88
2024/02/17 05:22:25;;;;;;;18.40;11.52;;;11.30;99.90;;;;;;5080737;28;20047;-89
2024/02/17 05:24:51;;;;;;;19.33;12.32;;;11.20;99.90;;;;;;5081190;28;20531;-89
2024/02/17 05:27:17;;;;;;;17.25;12.77;;;11.20;99.90;;;;;;5064258;28;20032;-88
2024/02/17 05:29:43;;;;;;;17.00;11.63;;;11.20;99.90;;;;;;5080879;28;20421;-87
2024/02/17 05:32:08;;;;;;;22.00;13.45;;;11.20;99.90;;;;;;5064514;28;20028;-89
2024/02/17 05:37:22;;;;;;;19.65;12.85;;;11.20;99.90;;;;;;5065835;28;20071;-88
2024/02/17 05:39:48;;;;;;;16.65;12.25;;;11.20;99.90;;;;;;5080194;28;20060;-89
2024/02/17 05:42:14;;;;;;;17.75;11.88;;;11.20;99.90;;;;;;5063856;28;20031;-88
2024/02/17 05:44:40;;;;;;;17.00;12.35;;;11.20;99.90;;;;;;5063747;28;20028;-88
2024/02/17 05:47:05;;;;;;;18.23;12.77;;;11.20;99.90;;;;;;5064033;28;20020;-88
2024/02/17 05:49:32;;;;;;;17.10;12.60;;;11.20;99.90;;;;;;5080443;28;20032;-88
2024/02/17 05:52:01;;;;;;;20.02;12.90;;;11.20;99.90;;;;;;5098255;28;20031;-88
2024/02/17 05:54:26;;;;;;;18.00;12.20;;;11.20;99.90;;;;;;5080307;28;20042;-88
2024/02/17 05:56:52;;;;;;;18.35;12.45;;;11.20;99.90;;;;;;5063373;28;20551;-88
2024/02/17 05:59:17;;;;;;;16.50;11.70;;;11.20;99.90;;;;;;5080276;28;20430;-88
2024/02/17 06:01:45;;;;;;;18.40;12.48;;;11.20;99.90;;;;;;5079908;28;20371;-88
2024/02/17 06:04:11;;;;;;;19.73;12.05;;;11.20;99.90;;;;;;5080262;28;20102;-87
2024/02/17 06:06:37;;;;;;;16.15;11.88;;;11.20;99.90;;;;;;5083035;28;20044;-88
2024/02/17 06:09:03;;;;;;;18.33;12.75;;;11.20;99.90;;;;;;5085654;28;20070;-88
2024/02/17 06:11:32;;;;;;;17.42;12.68;;;11.10;99.90;;;;;;5082873;28;20024;-89
2024/02/17 06:14:00;;;;;;;17.05;12.52;;;11.10;99.90;;;;;;5082912;28;20091;-88
2024/02/17 06:16:33;;;;;;;17.95;12.60;;;11.20;99.90;;;;;;5080268;28;20029;-88
2024/02/17 06:21:42;;;;;;;18.20;12.27;;;11.10;99.90;;;;;;5097730;28;20039;-89
2024/02/17 06:24:09;;;;;;;15.43;12.30;;;11.10;99.90;;;;;;5079843;28;20387;-88
2024/02/17 06:26:35;;;;;;;15.88;12.38;;;11.10;99.90;;;;;;5079695;28;20448;-89
2024/02/17 06:29:03;;;;;;;17.45;12.50;;;11.10;99.90;;;;;;5062671;28;20081;-88
2024/02/17 06:31:29;;;;;;;16.65;11.32;;;11.10;99.90;;;;;;5097422;28;20024;-88
2024/02/17 06:33:55;;;;;;;16.27;12.25;;;11.10;99.90;;;;;;5078814;28;20394;-87
2024/02/17 06:36:21;;;;;;;15.07;11.25;;;11.10;99.90;;;;;;5061999;28;20027;-87
2024/02/17 06:38:50;;;;;;;18.00;12.45;;;11.10;99.90;;;;;;5079365;28;20024;-89
2024/02/17 06:41:17;;;;;;;16.33;11.57;;;11.10;99.90;;;;;;5063427;28;20050;-89
2024/02/17 06:43:42;;;;;;;21.27;11.95;;;11.00;99.90;;;;;;5080469;28;20039;-84
2024/02/17 06:46:11;;;;;;;20.98;13.55;;;11.00;99.90;;;;;;5101418;28;20016;-87
2024/02/17 06:48:38;;;;;;;17.58;11.50;;;11.00;99.90;;;;;;5086356;28;20012;-82
2024/02/17 06:51:04;;;;;;;17.15;12.48;;;11.00;99.90;;;;;;5102696;28;20012;-88
2024/02/17 06:53:29;;;;;;;18.05;12.68;;;11.00;99.90;;;;;;5085672;28;20100;-90
2024/02/17 06:55:55;;;;;;;16.20;11.57;;;11.00;99.90;;;;;;5098886;28;20032;-90
2024/02/17 06:58:22;;;;;;;16.23;11.55;;;11.00;99.90;;;;;;5079027;28;20028;-90
2024/02/17 07:00:47;;;;;;;18.50;11.52;;;11.10;99.90;;;;;;5062503;28;20393;-90
2024/02/17 07:03:14;;;;;;;16.00;11.10;;;11.00;99.90;;;;;;5079330;28;20116;-89
2024/02/17 07:05:40;;;;;;;16.05;11.10;;;11.00;99.90;;;;;;5062245;28;20039;-89
2024/02/17 07:08:10;;;;;;;15.52;11.20;;;11.00;99.90;;;;;;5079360;28;20094;-90
2024/02/17 07:10:45;;;;;;;17.90;11.40;;;11.00;99.90;;;;;;5079378;28;20036;-92
2024/02/17 07:13:11;;;;;;;15.05;11.15;;;11.00;99.90;;;;;;5079454;28;20095;-92
2024/02/17 07:15:40;;;;;;;17.23;10.95;;;11.00;99.90;;;;;;5079347;28;20101;-89
2024/02/17 07:18:06;;;;;;;15.73;10.75;;;11.00;99.90;;;;;;5078402;28;20491;-89
2024/02/17 07:20:32;;;;;;;17.30;11.02;;;11.00;99.90;;;;;;5078746;28;20070;-90
2024/02/17 07:23:01;;;;;;;16.15;11.05;;;11.00;99.90;;;;;;5096712;28;20028;-89
2024/02/17 07:25:31;;;;;;;15.57;10.77;;;10.90;99.90;;;;;;5078447;28;20052;-89
2024/02/17 07:27:57;;;;;;;15.55;10.45;;;10.90;99.90;;;;;;5096760;28;20036;-91
2024/02/17 07:30:25;;;;;;;17.33;11.75;;;10.90;99.90;;;;;;5061812;28;20040;-89
2024/02/17 07:32:51;;;;;;;18.33;11.30;;;10.90;99.90;;;;;;5078505;28;20067;-89
2024/02/17 07:35:17;;;;;;;15.77;10.98;;;10.90;99.90;;;;;;5095687;28;20469;-89
2024/02/17 07:37:43;;;;;;;16.75;11.27;;;10.90;99.90;;;;;;5077814;28;20134;-89
2024/02/17 07:40:09;;;;;;;19.73;11.25;;;10.90;99.90;;;;;;5061126;28;20127;-89
2024/02/17 07:42:36;;;;;;;16.05;11.38;;;10.90;99.90;;;;;;5061055;28;20078;-89
2024/02/17 07:45:03;;;;;;;14.90;10.00;;;10.90;99.90;;;;;;5077220;28;20016;-87
2024/02/17 07:47:31;;;;;;;19.60;11.38;;;10.90;99.90;;;;;;5077982;28;20036;-87
2024/02/17 07:50:02;;;;;;;15.23;10.35;;;10.90;99.90;;;;;;5095506;28;20050;-88
2024/02/17 07:52:31;;;;;;;16.90;10.85;;;11.00;99.90;;;;;;5077366;28;20463;-88
2024/02/17 07:54:58;;;;;;;13.60;10.25;;;11.00;99.90;;;;;;5095171;28;20020;-89
2024/02/17 07:57:24;;;;;;;16.42;10.80;;;11.00;99.90;;;;;;5077221;28;20028;-87
2024/02/17 07:59:50;;;;;;;15.00;10.60;;;11.10;99.90;;;;;;5095634;28;20053;-88
2024/02/17 08:02:17;;;;;;;14.98;10.02;;;11.10;99.90;;;;;;5060958;28;20052;-89
2024/02/17 08:04:46;;;;;;;14.68;9.98;;;11.10;99.90;;;;;;5077427;28;20047;-85
2024/02/17 08:07:13;;;;;;;15.32;10.60;;;11.20;99.90;;;;;;5077397;28;20028;-89
2024/02/17 08:09:40;;;;;;;17.35;10.35;;;11.20;99.90;;;;;;5077685;28;20356;-88
2024/02/17 08:12:06;;;;;;;14.52;10.30;;;11.20;99.90;;;;;;5077423;28;20097;-88
2024/02/17 08:14:32;;;;;;;16.02;10.70;;;11.30;99.90;;;;;;5095912;28;20463;-88
2024/02/17 08:16:58;;;;;;;15.68;10.43;;;11.30;99.90;;;;;;5066103;28;20052;-88
2024/02/17 08:19:24;;;;;;;16.33;10.35;;;11.30;99.90;;;;;;5084317;28;20040;-87
2024/02/17 08:21:50;;;;;;;13.20;9.57;;;11.40;99.90;;;;;;5084415;28;20031;-84
2024/02/17 08:24:16;;;;;;;17.02;10.13;;;11.40;99.90;;;;;;5100791;28;20030;-87
2024/02/17 08:26:44;;;;;;;18.25;10.75;;;11.40;99.90;;;;;;5079602;28;20099;-89
2024/02/17 08:29:10;;;;;;;15.73;10.63;;;11.50;99.90;;;;;;5061103;28;20489;-90
2024/02/17 08:31:36;;;;;;;16.85;10.73;;;11.40;99.90;;;;;;5060394;28;20115;-88
2024/02/17 08:34:01;;;;;;;16.65;11.45;;;11.50;99.90;;;;;;5076395;28;20051;-88
2024/02/17 08:36:30;;;;;;;18.45;10.95;;;11.50;99.90;;;;;;5060452;28;20066;-89
2024/02/17 08:38:56;;;;;;;18.50;10.52;;;11.50;99.90;;;;;;5097064;28;20139;-89
2024/02/17 08:41:21;;;;;;;16.30;10.95;;;11.50;99.90;;;;;;5078525;28;20067;-88
2024/02/17 08:43:50;;;;;;;16.88;10.77;;;11.50;99.90;;;;;;5077193;28;20081;-87
2024/02/17 08:46:16;;;;;;;17.23;11.68;;;11.50;99.90;;;;;;5060864;28;20052;-88
2024/02/17 08:48:42;;;;;;;17.42;11.00;;;11.60;99.90;;;;;;5061425;28;20376;-89
2024/02/17 08:51:07;;;;;;;14.80;10.25;;;11.60;99.90;;;;;;5076795;28;20387;-89
2024/02/17 08:53:33;;;;;;;16.48;11.02;;;11.60;99.90;;;;;;5076977;28;20028;-88
2024/02/17 08:55:59;;;;;;;20.45;11.85;;;11.60;99.90;;;;;;5060107;28;20429;-89
2024/02/17 08:58:24;;;;;;;14.70;11.75;;;11.60;99.90;;;;;;5077000;28;20519;-88
2024/02/17 09:00:51;;;;;;;16.25;10.90;;;11.70;99.90;;;;;;5077032;28;20027;-88
2024/02/17 09:03:16;;;;;;;16.23;11.55;;;11.70;99.90;;;;;;5060440;28;20483;-88
2024/02/17 09:05:44;;;;;;;16.90;10.65;;;11.80;99.90;;;;;;5060630;28;20020;-88
2024/02/17 09:08:09;;;;;;;14.98;11.23;;;11.80;99.90;;;;;;5077429;28;20047;-88
2024/02/17 09:10:35;;;;;;;17.23;11.65;;;11.80;99.90;;;;;;5082672;28;20032;-88
2024/02/17 09:13:02;;;;;;;18.83;11.85;;;11.80;99.90;;;;;;5099294;28;20031;-88
2024/02/17 09:15:31;;;;;;;17.58;12.52;;;11.80;99.90;;;;;;5079474;28;20024;-88
2024/02/17 09:17:59;;;;;;;19.08;11.57;;;11.80;99.90;;;;;;5076675;28;20113;-88
2024/02/17 09:20:25;;;;;;;15.68;12.02;;;11.90;99.90;;;;;;5076125;28;20032;-88
2024/02/17 09:22:50;;;;;;;19.02;12.32;;;11.90;99.90;;;;;;5059696;28;20028;-88
2024/02/17 09:25:17;;;;;;;19.17;13.07;;;11.90;99.90;;;;;;5059908;28;20541;-87
2024/02/17 09:27:46;;;;;;;16.95;12.35;;;12.00;99.90;;;;;;5060228;28;20024;-88
2024/02/17 09:30:12;;;;;;;16.90;13.13;;;12.00;99.90;;;;;;5061567;28;20024;-88
2024/02/17 09:32:38;;;;;;;17.92;12.93;;;12.10;99.90;;;;;;5078171;28;20043;-88
2024/02/17 09:35:05;;;;;;;21.30;13.18;;;12.10;99.90;;;;;;5061984;28;20488;-89
2024/02/17 09:37:30;;;;;;;21.38;14.38;;;12.10;99.90;;;;;;5096271;28;20024;-89
2024/02/17 09:39:56;;;;;;;20.35;14.45;;;12.10;99.90;;;;;;5076596;28;20034;-88
2024/02/17 09:42:22;;;;;;;19.30;14.20;;;12.10;99.90;;;;;;5059471;28;20472;-88
2024/02/17 09:44:48;;;;;;;17.70;13.02;;;12.20;99.90;;;;;;5077104;28;20379;-87
2024/02/17 09:47:16;;;;;;;24.25;13.93;;;12.20;99.90;;;;;;5078940;28;20032;-89
2024/02/17 09:49:43;;;;;;;17.95;13.30;;;12.20;99.90;;;;;;5080458;28;20099;-88
2024/02/17 09:52:10;;;;;;;18.45;12.82;;;12.20;99.90;;;;;;5092895;28;20008;-85
2024/02/17 09:54:37;;;;;;;19.95;13.43;;;12.20;99.90;;;;;;5087276;28;20008;-87
2024/02/17 09:57:05;;;;;;;20.80;14.20;;;12.20;99.90;;;;;;5121208;28;20041;-86
2024/02/17 09:59:31;;;;;;;18.52;14.15;;;12.20;99.90;;;;;;5087198;28;20009;-87
2024/02/17 10:01:59;;;;;;;21.55;14.15;;;12.20;99.90;;;;;;5075382;28;20395;-89
2024/02/17 10:04:25;;;;;;;18.98;13.25;;;12.30;99.90;;;;;;5079904;28;20043;-89
2024/02/17 10:07:01;;;;;;;16.70;12.75;;;12.30;99.90;;;;;;5079674;28;20028;-87
2024/02/17 10:09:30;;;;;;;20.88;12.98;;;12.30;99.90;;;;;;5063116;28;20032;-89
2024/02/17 10:11:57;;;;;;;16.00;11.80;;;12.40;99.90;;;;;;5080124;28;20520;-87
2024/02/17 10:14:23;;;;;;;18.75;12.43;;;12.30;99.90;;;;;;5062794;28;20032;-87
2024/02/17 10:16:57;;;;;;;16.77;12.98;;;12.40;99.90;;;;;;5078991;28;20051;-87
2024/02/17 10:19:23;;;;;;;14.77;11.73;;;12.40;99.90;;;;;;5079001;28;20040;-87
2024/02/17 10:21:53;;;;;;;17.73;12.43;;;12.50;99.90;;;;;;5062461;28;20059;-89
2024/02/17 10:24:21;;;;;;;16.65;11.85;;;12.60;99.90;;;;;;5078917;28;20012;-89
2024/02/17 10:26:54;;;;;;;16.88;12.38;;;12.60;99.90;;;;;;5097303;28;20052;-89
2024/02/17 10:29:20;;;;;;;18.42;12.45;;;12.60;99.90;;;;;;5097687;28;20028;-89
2024/02/17 10:31:48;;;;;;;18.17;13.07;;;12.70;99.90;;;;;;5062752;28;20042;-88
2024/02/17 10:34:15;;;;;;;20.45;13.73;;;12.80;99.90;;;;;;5078921;28;20046;-88
2024/02/17 10:36:41;;;;;;;18.33;12.95;;;12.80;99.90;;;;;;5096967;28;20020;-87
2024/02/17 10:39:07;;;;;;;18.55;12.18;;;12.80;99.90;;;;;;5079410;28;20028;-88
2024/02/17 10:41:36;;;;;;;17.73;11.77;;;12.90;99.90;;;;;;5061310;28;20423;-89
2024/02/17 10:44:05;;;;;;;18.50;12.40;;;12.80;99.90;;;;;;5061971;28;20090;-85
2024/02/17 10:46:35;;;;;;;17.63;12.38;;;13.00;99.90;;;;;;5096898;28;20020;-90
2024/02/17 10:49:14;;;;;;;14.60;11.93;;;13.00;99.90;;;;;;5078269;28;20094;-89
2024/02/17 10:51:50;;;;;;;15.75;11.50;;;13.00;99.90;;;;;;5096783;28;20042;-87
2024/02/17 10:54:26;;;;;;;16.27;11.43;;;13.10;99.90;;;;;;5096665;28;20020;-89
2024/02/17 10:56:52;;;;;;;15.50;11.43;;;13.00;99.90;;;;;;5077999;28;20026;-88
2024/02/17 10:59:22;;;;;;;14.38;10.48;;;13.10;99.90;;;;;;5077750;28;20019;-88
2024/02/17 11:01:49;;;;;;;17.33;11.02;;;13.10;99.90;;;;;;5078139;28;20031;-88
2024/02/17 11:04:14;;;;;;;19.15;11.57;;;13.20;99.90;;;;;;5061422;28;20038;-89
2024/02/17 11:06:41;;;;;;;15.35;10.65;;;13.20;99.90;;;;;;5077388;28;20028;-87
2024/02/17 11:09:07;;;;;;;15.20;9.95;;;13.20;99.90;;;;;;5061500;28;20020;-88
2024/02/17 11:11:33;;;;;;;13.68;10.13;;;13.20;99.90;;;;;;5061307;28;20058;-88
2024/02/17 11:14:19;;;;;;;14.68;10.30;;;13.20;99.90;;;;;;5061322;28;20028;-89
2024/02/17 11:16:45;;;;;;;15.20;10.98;;;13.20;99.90;;;;;;5077601;28;20028;-88
2024/02/17 11:19:11;;;;;;;15.15;10.73;;;13.20;99.90;;;;;;5061654;28;20417;-87
2024/02/17 11:21:42;;;;;;;15.52;10.93;;;13.30;99.90;;;;;;5096025;28;20108;-89
2024/02/17 11:24:09;;;;;;;18.80;11.07;;;13.30;99.90;;;;;;5079005;28;20020;-89
2024/02/17 11:26:35;;;;;;;15.25;10.40;;;13.30;99.90;;;;;;5080182;28;20031;-88
2024/02/17 11:29:07;;;;;;;16.00;10.20;;;13.30;99.90;;;;;;5115778;28;20031;-86
2024/02/17 11:31:33;;;;;;;15.07;11.20;;;13.30;99.90;;;;;;5085289;28;20032;-88
2024/02/17 11:34:03;;;;;;;14.65;11.23;;;13.30;99.90;;;;;;5119254;28;20041;-88
2024/02/17 11:36:33;;;;;;;15.40;11.10;;;13.30;99.90;;;;;;5100293;28;20102;-88
2024/02/17 11:38:59;;;;;;;15.38;10.60;;;13.30;99.90;;;;;;5099193;28;20456;-88
2024/02/17 11:41:30;;;;;;;14.70;11.35;;;13.30;99.90;;;;;;5077941;28;20119;-88
2024/02/17 11:43:57;;;;;;;16.30;11.95;;;13.30;99.90;;;;;;5076921;28;20079;-86
2024/02/17 11:46:23;;;;;;;18.42;11.70;;;13.30;99.90;;;;;;5077286;28;20032;-88
2024/02/17 11:48:48;;;;;;;17.85;12.25;;;13.40;99.90;;;;;;5077987;28;20107;-87
2024/02/17 11:51:20;;;;;;;14.88;10.30;;;13.30;99.90;;;;;;5077920;28;20054;-89
2024/02/17 11:53:47;;;;;;;15.25;11.20;;;13.40;99.90;;;;;;5077793;28;20046;-87
2024/02/17 11:56:13;;;;;;;13.13;9.85;;;13.30;99.90;;;;;;5060861;28;20028;-87
2024/02/17 11:58:39;;;;;;;15.50;10.73;;;13.30;99.90;;;;;;5060427;28;20049;-88
2024/02/17 12:01:05;;;;;;;14.88;10.65;;;13.30;99.90;;;;;;5095771;28;20032;-87
2024/02/17 12:03:31;;;;;;;14.48;10.38;;;13.30;99.90;;;;;;5061156;28;20032;-89
2024/02/17 12:06:02;;;;;;;17.17;10.20;;;13.30;99.90;;;;;;5061167;28;20020;-86
2024/02/17 12:08:28;;;;;;;14.23;9.65;;;13.20;99.90;;;;;;5078341;28;20523;-88
2024/02/17 12:10:56;;;;;;;12.98;9.95;;;13.20;99.90;;;;;;5098345;28;20028;-88
2024/02/17 12:13:22;;;;;;;11.80;9.40;;;13.10;99.90;;;;;;5081460;28;20016;-88
2024/02/17 12:15:47;;;;;;;14.25;9.73;;;13.10;99.90;;;;;;5081298;28;20085;-88
2024/02/17 12:18:16;;;;;;;14.57;9.65;;;13.00;99.90;;;;;;5063204;28;20081;-88
2024/02/17 12:20:43;;;;;;;15.00;9.80;;;13.00;99.90;;;;;;5077047;28;20020;-88
2024/02/17 12:23:10;;;;;;;12.90;9.07;;;13.10;99.90;;;;;;5094789;28;20467;-86
2024/02/17 12:25:39;;;;;;;13.82;9.95;;;13.00;99.90;;;;;;5076932;28;20031;-89
2024/02/17 12:28:08;;;;;;;14.82;9.07;;;13.00;99.90;;;;;;5077059;28;20044;-88
2024/02/17 12:30:49;;;;;;;14.40;9.00;;;13.10;99.90;;;;;;5060670;28;20467;-88
2024/02/17 12:33:21;;;;;;;14.57;8.70;;;13.00;99.90;;;;;;5094714;28;20055;-89